sensor_id;sensor_type;location;lat;lon;timestamp;P1;durP1;ratioP1;P2;durP2;ratioP2
48987;SDS011;34799;51.440;-2.534;2023-10-19T00:01:57;4.78;;;0.38;;
48987;SDS011;34799;51.440;-2.534;2023-10-19T00:04:25;5.78;;;0.30;;
48987;SDS011;34799;51.440;-2.534;2023-10-19T00:06:52;5.68;;;0.20;;
48987;SDS011;34799;51.440;-2.534;2023-10-19T00:09:19;3.60;;;0.20;;
48987;SDS011;34799;51.440;-2.534;2023-10-19T00:11:47;6.53;;;0.40;;
48987;SDS011;34799;51.440;-2.534;2023-10-19T00:14:17;1.88;;;0.20;;
48987;SDS011;34799;51.440;-2.534;2023-10-19T00:16:45;6.32;;;0.30;;
48987;SDS011;34799;51.440;-2.534;2023-10-19T00:19:19;4.38;;;0.28;;
48987;SDS011;34799;51.440;-2.534;2023-10-19T00:21:47;5.13;;;0.63;;
48987;SDS011;34799;51.440;-2.534;2023-10-19T00:24:18;7.03;;;0.35;;
48987;SDS011;34799;51.440;-2.534;2023-10-19T00:26:48;2.95;;;0.20;;
48987;SDS011;34799;51.440;-2.534;2023-10-19T00:29:20;3.83;;;0.73;;
48987;SDS011;34799;51.440;-2.534;2023-10-19T00:32:01;4.88;;;0.20;;
48987;SDS011;34799;51.440;-2.534;2023-10-19T00:37:05;4.68;;;0.20;;
48987;SDS011;34799;51.440;-2.534;2023-10-19T00:39:37;2.60;;;0.40;;
48987;SDS011;34799;51.440;-2.534;2023-10-19T00:42:10;5.35;;;0.28;;
48987;SDS011;34799;51.440;-2.534;2023-10-19T00:44:38;5.47;;;0.30;;
48987;SDS011;34799;51.440;-2.534;2023-10-19T00:47:08;2.42;;;0.20;;
48987;SDS011;34799;51.440;-2.534;2023-10-19T00:49:40;2.58;;;0.40;;
48987;SDS011;34799;51.440;-2.534;2023-10-19T00:52:11;5.40;;;0.25;;
48987;SDS011;34799;51.440;-2.534;2023-10-19T00:54:43;3.60;;;0.10;;
48987;SDS011;34799;51.440;-2.534;2023-10-19T00:57:25;3.70;;;0.30;;
48987;SDS011;34799;51.440;-2.534;2023-10-19T01:00:02;7.25;;;0.20;;
48987;SDS011;34799;51.440;-2.534;2023-10-19T01:02:48;3.20;;;0.10;;
48987;SDS011;34799;51.440;-2.534;2023-10-19T01:05:18;5.43;;;0.20;;
48987;SDS011;34799;51.440;-2.534;2023-10-19T01:07:48;4.22;;;0.30;;
48987;SDS011;34799;51.440;-2.534;2023-10-19T01:10:28;9.25;;;0.63;;
48987;SDS011;34799;51.440;-2.534;2023-10-19T01:12:58;4.60;;;0.93;;
48987;SDS011;34799;51.440;-2.534;2023-10-19T01:15:26;6.15;;;0.30;;
48987;SDS011;34799;51.440;-2.534;2023-10-19T01:17:56;6.53;;;0.45;;
48987;SDS011;34799;51.440;-2.534;2023-10-19T01:20:26;2.17;;;0.20;;
48987;SDS011;34799;51.440;-2.534;2023-10-19T01:22:55;1.50;;;0.20;;
48987;SDS011;34799;51.440;-2.534;2023-10-19T01:28:15;3.10;;;0.15;;
48987;SDS011;34799;51.440;-2.534;2023-10-19T01:30:44;5.07;;;0.22;;
48987;SDS011;34799;51.440;-2.534;2023-10-19T01:33:18;3.17;;;0.17;;
48987;SDS011;34799;51.440;-2.534;2023-10-19T01:35:45;0.93;;;0.10;;
48987;SDS011;34799;51.440;-2.534;2023-10-19T01:38:31;1.33;;;0.10;;
48987;SDS011;34799;51.440;-2.534;2023-10-19T01:41:02;3.47;;;0.20;;
48987;SDS011;34799;51.440;-2.534;2023-10-19T01:43:34;4.50;;;0.68;;
48987;SDS011;34799;51.440;-2.534;2023-10-19T01:46:06;0.68;;;0.10;;
48987;SDS011;34799;51.440;-2.534;2023-10-19T01:48:39;2.28;;;0.10;;
48987;SDS011;34799;51.440;-2.534;2023-10-19T01:51:09;2.70;;;0.38;;
48987;SDS011;34799;51.440;-2.534;2023-10-19T01:53:37;2.47;;;0.20;;
48987;SDS011;34799;51.440;-2.534;2023-10-19T01:56:11;1.73;;;0.17;;
48987;SDS011;34799;51.440;-2.534;2023-10-19T01:58:40;1.58;;;0.10;;
48987;SDS011;34799;51.440;-2.534;2023-10-19T02:01:09;2.63;;;0.30;;
48987;SDS011;34799;51.440;-2.534;2023-10-19T02:03:40;1.90;;;0.40;;
48987;SDS011;34799;51.440;-2.534;2023-10-19T02:06:09;0.85;;;0.22;;
48987;SDS011;34799;51.440;-2.534;2023-10-19T02:11:22;4.97;;;0.20;;
48987;SDS011;34799;51.440;-2.534;2023-10-19T02:13:52;2.45;;;0.30;;
48987;SDS011;34799;51.440;-2.534;2023-10-19T02:16:30;4.15;;;0.20;;
48987;SDS011;34799;51.440;-2.534;2023-10-19T02:19:00;7.28;;;0.50;;
48987;SDS011;34799;51.440;-2.534;2023-10-19T02:21:28;4.40;;;0.30;;
48987;SDS011;34799;51.440;-2.534;2023-10-19T02:23:57;7.63;;;0.25;;
48987;SDS011;34799;51.440;-2.534;2023-10-19T02:26:25;4.50;;;0.57;;
48987;SDS011;34799;51.440;-2.534;2023-10-19T02:28:54;5.53;;;0.60;;
48987;SDS011;34799;51.440;-2.534;2023-10-19T02:31:24;6.18;;;0.50;;
48987;SDS011;34799;51.440;-2.534;2023-10-19T02:33:53;7.47;;;0.50;;
48987;SDS011;34799;51.440;-2.534;2023-10-19T02:36:29;4.00;;;0.43;;
48987;SDS011;34799;51.440;-2.534;2023-10-19T02:38:59;2.80;;;0.98;;
48987;SDS011;34799;51.440;-2.534;2023-10-19T02:44:03;5.30;;;0.30;;
48987;SDS011;34799;51.440;-2.534;2023-10-19T02:46:47;4.07;;;0.43;;
48987;SDS011;34799;51.440;-2.534;2023-10-19T02:49:20;5.15;;;0.30;;
48987;SDS011;34799;51.440;-2.534;2023-10-19T02:51:49;8.93;;;0.65;;
48987;SDS011;34799;51.440;-2.534;2023-10-19T02:54:18;7.40;;;0.63;;
48987;SDS011;34799;51.440;-2.534;2023-10-19T02:56:50;10.60;;;1.25;;
48987;SDS011;34799;51.440;-2.534;2023-10-19T02:59:20;8.70;;;0.70;;
48987;SDS011;34799;51.440;-2.534;2023-10-19T03:01:49;9.93;;;1.25;;
48987;SDS011;34799;51.440;-2.534;2023-10-19T03:04:19;8.98;;;0.93;;
48987;SDS011;34799;51.440;-2.534;2023-10-19T03:06:47;7.07;;;0.52;;
48987;SDS011;34799;51.440;-2.534;2023-10-19T03:09:14;12.65;;;1.25;;
48987;SDS011;34799;51.440;-2.534;2023-10-19T03:11:54;10.02;;;1.08;;
48987;SDS011;34799;51.440;-2.534;2023-10-19T03:14:26;9.70;;;1.00;;
48987;SDS011;34799;51.440;-2.534;2023-10-19T03:16:54;14.57;;;1.00;;
48987;SDS011;34799;51.440;-2.534;2023-10-19T03:19:23;15.27;;;1.70;;
48987;SDS011;34799;51.440;-2.534;2023-10-19T03:21:53;15.30;;;2.13;;
48987;SDS011;34799;51.440;-2.534;2023-10-19T03:24:21;15.85;;;1.88;;
48987;SDS011;34799;51.440;-2.534;2023-10-19T03:27:13;18.08;;;1.25;;
48987;SDS011;34799;51.440;-2.534;2023-10-19T03:29:44;16.55;;;1.30;;
48987;SDS011;34799;51.440;-2.534;2023-10-19T03:32:13;18.13;;;1.80;;
48987;SDS011;34799;51.440;-2.534;2023-10-19T03:34:41;15.10;;;1.80;;
48987;SDS011;34799;51.440;-2.534;2023-10-19T03:37:14;12.02;;;1.50;;
48987;SDS011;34799;51.440;-2.534;2023-10-19T03:39:43;14.02;;;2.42;;
48987;SDS011;34799;51.440;-2.534;2023-10-19T03:42:13;16.70;;;2.55;;
48987;SDS011;34799;51.440;-2.534;2023-10-19T03:44:41;12.90;;;1.75;;
48987;SDS011;34799;51.440;-2.534;2023-10-19T03:47:19;15.82;;;1.60;;
48987;SDS011;34799;51.440;-2.534;2023-10-19T03:49:47;12.70;;;1.83;;
48987;SDS011;34799;51.440;-2.534;2023-10-19T03:52:17;16.60;;;2.35;;
48987;SDS011;34799;51.440;-2.534;2023-10-19T03:54:45;9.77;;;1.05;;
48987;SDS011;34799;51.440;-2.534;2023-10-19T03:57:14;16.63;;;1.90;;
48987;SDS011;34799;51.440;-2.534;2023-10-19T03:59:47;21.80;;;2.15;;
48987;SDS011;34799;51.440;-2.534;2023-10-19T04:02:25;18.35;;;2.22;;
48987;SDS011;34799;51.440;-2.534;2023-10-19T04:04:55;12.93;;;1.60;;
48987;SDS011;34799;51.440;-2.534;2023-10-19T04:07:24;17.85;;;2.35;;
48987;SDS011;34799;51.440;-2.534;2023-10-19T04:09:58;15.32;;;2.13;;
48987;SDS011;34799;51.440;-2.534;2023-10-19T04:12:26;9.60;;;1.25;;
48987;SDS011;34799;51.440;-2.534;2023-10-19T04:14:55;14.77;;;1.98;;
48987;SDS011;34799;51.440;-2.534;2023-10-19T04:17:23;13.95;;;1.98;;
48987;SDS011;34799;51.440;-2.534;2023-10-19T04:19:52;13.60;;;1.10;;
48987;SDS011;34799;51.440;-2.534;2023-10-19T04:22:20;7.40;;;0.85;;
48987;SDS011;34799;51.440;-2.534;2023-10-19T04:24:53;8.35;;;0.30;;
48987;SDS011;34799;51.440;-2.534;2023-10-19T04:27:20;5.22;;;0.30;;
48987;SDS011;34799;51.440;-2.534;2023-10-19T04:29:49;4.57;;;0.35;;
48987;SDS011;34799;51.440;-2.534;2023-10-19T04:32:16;5.28;;;0.17;;
48987;SDS011;34799;51.440;-2.534;2023-10-19T04:34:52;3.95;;;0.30;;
48987;SDS011;34799;51.440;-2.534;2023-10-19T04:37:20;7.10;;;0.47;;
48987;SDS011;34799;51.440;-2.534;2023-10-19T04:39:50;4.55;;;0.55;;
48987;SDS011;34799;51.440;-2.534;2023-10-19T04:42:18;5.18;;;0.50;;
48987;SDS011;34799;51.440;-2.534;2023-10-19T04:44:49;6.25;;;0.30;;
48987;SDS011;34799;51.440;-2.534;2023-10-19T04:47:17;3.40;;;0.35;;
48987;SDS011;34799;51.440;-2.534;2023-10-19T04:49:45;8.57;;;0.63;;
48987;SDS011;34799;51.440;-2.534;2023-10-19T04:52:13;8.20;;;0.40;;
48987;SDS011;34799;51.440;-2.534;2023-10-19T04:54:41;9.18;;;0.50;;
48987;SDS011;34799;51.440;-2.534;2023-10-19T04:57:10;12.65;;;1.02;;
48987;SDS011;34799;51.440;-2.534;2023-10-19T04:59:38;9.82;;;0.63;;
48987;SDS011;34799;51.440;-2.534;2023-10-19T05:02:06;6.93;;;0.70;;
48987;SDS011;34799;51.440;-2.534;2023-10-19T05:04:34;10.27;;;0.93;;
48987;SDS011;34799;51.440;-2.534;2023-10-19T05:07:03;8.23;;;0.63;;
48987;SDS011;34799;51.440;-2.534;2023-10-19T05:09:31;9.07;;;0.93;;
48987;SDS011;34799;51.440;-2.534;2023-10-19T05:11:59;11.25;;;1.00;;
48987;SDS011;34799;51.440;-2.534;2023-10-19T05:14:28;11.40;;;0.70;;
48987;SDS011;34799;51.440;-2.534;2023-10-19T05:16:57;11.95;;;0.60;;
48987;SDS011;34799;51.440;-2.534;2023-10-19T05:19:25;9.32;;;1.05;;
48987;SDS011;34799;51.440;-2.534;2023-10-19T05:21:52;15.75;;;1.38;;
48987;SDS011;34799;51.440;-2.534;2023-10-19T05:24:20;8.77;;;0.55;;
48987;SDS011;34799;51.440;-2.534;2023-10-19T05:26:49;14.85;;;1.25;;
48987;SDS011;34799;51.440;-2.534;2023-10-19T05:29:18;17.75;;;1.48;;
48987;SDS011;34799;51.440;-2.534;2023-10-19T05:31:46;12.23;;;0.85;;
48987;SDS011;34799;51.440;-2.534;2023-10-19T05:34:14;13.43;;;0.95;;
48987;SDS011;34799;51.440;-2.534;2023-10-19T05:36:43;9.18;;;1.35;;
48987;SDS011;34799;51.440;-2.534;2023-10-19T05:39:12;19.10;;;1.83;;
48987;SDS011;34799;51.440;-2.534;2023-10-19T05:41:39;22.30;;;2.33;;
48987;SDS011;34799;51.440;-2.534;2023-10-19T05:44:07;18.58;;;1.63;;
48987;SDS011;34799;51.440;-2.534;2023-10-19T05:46:35;21.17;;;2.13;;
48987;SDS011;34799;51.440;-2.534;2023-10-19T05:49:03;20.90;;;2.38;;
48987;SDS011;34799;51.440;-2.534;2023-10-19T05:51:32;19.58;;;1.35;;
48987;SDS011;34799;51.440;-2.534;2023-10-19T05:53:59;15.10;;;1.92;;
48987;SDS011;34799;51.440;-2.534;2023-10-19T05:56:33;21.88;;;1.30;;
48987;SDS011;34799;51.440;-2.534;2023-10-19T05:59:03;19.35;;;2.10;;
48987;SDS011;34799;51.440;-2.534;2023-10-19T06:01:31;21.48;;;2.33;;
48987;SDS011;34799;51.440;-2.534;2023-10-19T06:04:00;24.55;;;2.88;;
48987;SDS011;34799;51.440;-2.534;2023-10-19T06:06:29;18.58;;;1.40;;
48987;SDS011;34799;51.440;-2.534;2023-10-19T06:08:57;19.25;;;2.13;;
48987;SDS011;34799;51.440;-2.534;2023-10-19T06:11:28;17.70;;;1.63;;
48987;SDS011;34799;51.440;-2.534;2023-10-19T06:13:59;17.13;;;1.33;;
48987;SDS011;34799;51.440;-2.534;2023-10-19T06:16:28;15.88;;;2.38;;
48987;SDS011;34799;51.440;-2.534;2023-10-19T06:18:56;17.17;;;1.60;;
48987;SDS011;34799;51.440;-2.534;2023-10-19T06:21:24;21.92;;;3.17;;
48987;SDS011;34799;51.440;-2.534;2023-10-19T06:23:52;16.83;;;1.70;;
48987;SDS011;34799;51.440;-2.534;2023-10-19T06:26:21;25.40;;;2.33;;
48987;SDS011;34799;51.440;-2.534;2023-10-19T06:28:48;12.27;;;2.05;;
48987;SDS011;34799;51.440;-2.534;2023-10-19T06:31:17;16.90;;;1.98;;
48987;SDS011;34799;51.440;-2.534;2023-10-19T06:33:45;21.08;;;1.83;;
48987;SDS011;34799;51.440;-2.534;2023-10-19T06:36:14;23.92;;;2.85;;
48987;SDS011;34799;51.440;-2.534;2023-10-19T06:38:42;20.63;;;2.10;;
48987;SDS011;34799;51.440;-2.534;2023-10-19T06:41:10;15.95;;;2.35;;
48987;SDS011;34799;51.440;-2.534;2023-10-19T06:43:38;20.15;;;1.75;;
48987;SDS011;34799;51.440;-2.534;2023-10-19T06:46:08;25.13;;;2.47;;
48987;SDS011;34799;51.440;-2.534;2023-10-19T06:48:38;26.33;;;2.55;;
48987;SDS011;34799;51.440;-2.534;2023-10-19T06:51:05;27.80;;;2.60;;
48987;SDS011;34799;51.440;-2.534;2023-10-19T06:53:33;18.67;;;3.15;;
48987;SDS011;34799;51.440;-2.534;2023-10-19T06:56:00;23.67;;;2.75;;
48987;SDS011;34799;51.440;-2.534;2023-10-19T06:58:28;18.08;;;1.60;;
48987;SDS011;34799;51.440;-2.534;2023-10-19T07:00:56;19.45;;;1.85;;
48987;SDS011;34799;51.440;-2.534;2023-10-19T07:03:26;21.20;;;2.72;;
48987;SDS011;34799;51.440;-2.534;2023-10-19T07:05:54;18.00;;;1.88;;
48987;SDS011;34799;51.440;-2.534;2023-10-19T07:08:23;22.15;;;1.90;;
48987;SDS011;34799;51.440;-2.534;2023-10-19T07:10:50;19.95;;;1.75;;
48987;SDS011;34799;51.440;-2.534;2023-10-19T07:13:17;21.35;;;1.83;;
48987;SDS011;34799;51.440;-2.534;2023-10-19T07:15:48;24.23;;;1.92;;
48987;SDS011;34799;51.440;-2.534;2023-10-19T07:18:15;29.95;;;2.70;;
48987;SDS011;34799;51.440;-2.534;2023-10-19T07:20:43;23.40;;;2.92;;
48987;SDS011;34799;51.440;-2.534;2023-10-19T07:23:15;31.27;;;2.65;;
48987;SDS011;34799;51.440;-2.534;2023-10-19T07:25:48;23.75;;;1.65;;
48987;SDS011;34799;51.440;-2.534;2023-10-19T07:28:19;27.70;;;3.10;;
48987;SDS011;34799;51.440;-2.534;2023-10-19T07:30:46;26.52;;;2.88;;
48987;SDS011;34799;51.440;-2.534;2023-10-19T07:33:14;26.08;;;2.70;;
48987;SDS011;34799;51.440;-2.534;2023-10-19T07:35:44;21.45;;;2.30;;
48987;SDS011;34799;51.440;-2.534;2023-10-19T07:38:19;24.48;;;2.72;;
48987;SDS011;34799;51.440;-2.534;2023-10-19T07:40:48;23.85;;;2.30;;
48987;SDS011;34799;51.440;-2.534;2023-10-19T07:43:15;21.10;;;2.53;;
48987;SDS011;34799;51.440;-2.534;2023-10-19T07:45:42;27.63;;;3.00;;
48987;SDS011;34799;51.440;-2.534;2023-10-19T07:48:10;33.63;;;2.17;;
48987;SDS011;34799;51.440;-2.534;2023-10-19T07:50:38;24.88;;;2.72;;
48987;SDS011;34799;51.440;-2.534;2023-10-19T07:53:09;22.25;;;2.28;;
48987;SDS011;34799;51.440;-2.534;2023-10-19T07:55:36;26.73;;;2.05;;
48987;SDS011;34799;51.440;-2.534;2023-10-19T07:58:05;24.30;;;2.75;;
48987;SDS011;34799;51.440;-2.534;2023-10-19T08:00:36;24.90;;;3.03;;
48987;SDS011;34799;51.440;-2.534;2023-10-19T08:03:05;25.70;;;2.85;;
48987;SDS011;34799;51.440;-2.534;2023-10-19T08:05:34;20.52;;;2.05;;
48987;SDS011;34799;51.440;-2.534;2023-10-19T08:08:03;27.40;;;3.40;;
48987;SDS011;34799;51.440;-2.534;2023-10-19T08:10:32;18.35;;;2.45;;
48987;SDS011;34799;51.440;-2.534;2023-10-19T08:13:03;24.90;;;2.35;;
48987;SDS011;34799;51.440;-2.534;2023-10-19T08:15:30;24.25;;;2.42;;
48987;SDS011;34799;51.440;-2.534;2023-10-19T08:17:57;19.95;;;2.25;;
48987;SDS011;34799;51.440;-2.534;2023-10-19T08:20:25;27.15;;;3.03;;
48987;SDS011;34799;51.440;-2.534;2023-10-19T08:22:59;18.20;;;2.28;;
48987;SDS011;34799;51.440;-2.534;2023-10-19T08:25:29;22.45;;;1.75;;
48987;SDS011;34799;51.440;-2.534;2023-10-19T08:28:02;27.80;;;3.05;;
48987;SDS011;34799;51.440;-2.534;2023-10-19T08:30:29;18.33;;;2.03;;
48987;SDS011;34799;51.440;-2.534;2023-10-19T08:32:56;19.13;;;2.63;;
48987;SDS011;34799;51.440;-2.534;2023-10-19T08:35:24;23.48;;;2.63;;
48987;SDS011;34799;51.440;-2.534;2023-10-19T08:37:53;21.42;;;2.05;;
48987;SDS011;34799;51.440;-2.534;2023-10-19T08:40:25;18.25;;;1.80;;
48987;SDS011;34799;51.440;-2.534;2023-10-19T08:42:54;18.50;;;1.48;;
48987;SDS011;34799;51.440;-2.534;2023-10-19T08:45:23;14.15;;;1.27;;
48987;SDS011;34799;51.440;-2.534;2023-10-19T08:50:26;17.60;;;1.60;;
48987;SDS011;34799;51.440;-2.534;2023-10-19T08:53:04;20.00;;;2.00;;
48987;SDS011;34799;51.440;-2.534;2023-10-19T08:55:35;22.02;;;1.90;;
48987;SDS011;34799;51.440;-2.534;2023-10-19T08:58:14;15.07;;;1.27;;
48987;SDS011;34799;51.440;-2.534;2023-10-19T09:00:43;18.27;;;1.80;;
48987;SDS011;34799;51.440;-2.534;2023-10-19T09:03:14;17.27;;;1.83;;
48987;SDS011;34799;51.440;-2.534;2023-10-19T09:05:44;18.88;;;1.70;;
48987;SDS011;34799;51.440;-2.534;2023-10-19T09:08:16;19.58;;;2.00;;
48987;SDS011;34799;51.440;-2.534;2023-10-19T09:10:44;17.80;;;1.92;;
48987;SDS011;34799;51.440;-2.534;2023-10-19T09:13:12;24.58;;;3.72;;
48987;SDS011;34799;51.440;-2.534;2023-10-19T09:15:42;22.35;;;2.03;;
48987;SDS011;34799;51.440;-2.534;2023-10-19T09:18:19;21.77;;;2.28;;
48987;SDS011;34799;51.440;-2.534;2023-10-19T09:20:49;20.75;;;2.15;;
48987;SDS011;34799;51.440;-2.534;2023-10-19T09:23:24;19.70;;;2.90;;
48987;SDS011;34799;51.440;-2.534;2023-10-19T09:25:56;26.23;;;3.28;;
48987;SDS011;34799;51.440;-2.534;2023-10-19T09:28:25;24.10;;;2.25;;
48987;SDS011;34799;51.440;-2.534;2023-10-19T09:30:53;21.83;;;2.58;;
48987;SDS011;34799;51.440;-2.534;2023-10-19T09:33:22;17.85;;;2.60;;
48987;SDS011;34799;51.440;-2.534;2023-10-19T09:35:50;20.15;;;2.10;;
48987;SDS011;34799;51.440;-2.534;2023-10-19T09:38:20;18.20;;;2.22;;
48987;SDS011;34799;51.440;-2.534;2023-10-19T09:40:52;17.20;;;1.88;;
48987;SDS011;34799;51.440;-2.534;2023-10-19T09:45:56;18.77;;;2.17;;
48987;SDS011;34799;51.440;-2.534;2023-10-19T09:48:27;24.73;;;2.25;;
48987;SDS011;34799;51.440;-2.534;2023-10-19T09:50:56;25.38;;;3.17;;
48987;SDS011;34799;51.440;-2.534;2023-10-19T09:53:25;28.40;;;9.55;;
48987;SDS011;34799;51.440;-2.534;2023-10-19T09:55:58;17.95;;;2.47;;
48987;SDS011;34799;51.440;-2.534;2023-10-19T09:58:31;15.65;;;2.85;;
48987;SDS011;34799;51.440;-2.534;2023-10-19T10:01:04;26.35;;;3.40;;
48987;SDS011;34799;51.440;-2.534;2023-10-19T10:03:41;20.50;;;1.90;;
48987;SDS011;34799;51.440;-2.534;2023-10-19T10:06:13;18.80;;;2.80;;
48987;SDS011;34799;51.440;-2.534;2023-10-19T10:08:44;11.23;;;1.77;;
48987;SDS011;34799;51.440;-2.534;2023-10-19T10:13:47;24.25;;;2.22;;
48987;SDS011;34799;51.440;-2.534;2023-10-19T10:16:25;17.73;;;2.58;;
48987;SDS011;34799;51.440;-2.534;2023-10-19T10:18:55;19.97;;;2.13;;
48987;SDS011;34799;51.440;-2.534;2023-10-19T10:21:26;19.20;;;2.72;;
48987;SDS011;34799;51.440;-2.534;2023-10-19T10:23:58;14.90;;;1.80;;
48987;SDS011;34799;51.440;-2.534;2023-10-19T10:26:28;17.98;;;2.40;;
48987;SDS011;34799;51.440;-2.534;2023-10-19T10:29:12;22.25;;;2.33;;
48987;SDS011;34799;51.440;-2.534;2023-10-19T10:37:04;21.52;;;1.92;;
48987;SDS011;34799;51.440;-2.534;2023-10-19T10:39:35;21.90;;;2.60;;
48987;SDS011;34799;51.440;-2.534;2023-10-19T10:42:07;16.83;;;1.80;;
48987;SDS011;34799;51.440;-2.534;2023-10-19T10:47:18;18.20;;;2.22;;
48987;SDS011;34799;51.440;-2.534;2023-10-19T10:52:27;17.25;;;1.45;;
48987;SDS011;34799;51.440;-2.534;2023-10-19T10:55:06;11.82;;;2.63;;
48987;SDS011;34799;51.440;-2.534;2023-10-19T10:57:38;19.40;;;1.60;;
48987;SDS011;34799;51.440;-2.534;2023-10-19T11:00:07;21.05;;;2.10;;
48987;SDS011;34799;51.440;-2.534;2023-10-19T11:02:43;23.35;;;2.60;;
48987;SDS011;34799;51.440;-2.534;2023-10-19T11:05:16;29.70;;;1.98;;
48987;SDS011;34799;51.440;-2.534;2023-10-19T11:10:42;23.25;;;3.05;;
48987;SDS011;34799;51.440;-2.534;2023-10-19T11:13:12;19.05;;;1.60;;
48987;SDS011;34799;51.440;-2.534;2023-10-19T11:15:51;15.32;;;1.67;;
48987;SDS011;34799;51.440;-2.534;2023-10-19T11:21:01;19.92;;;1.80;;
48987;SDS011;34799;51.440;-2.534;2023-10-19T11:23:46;16.42;;;2.20;;
48987;SDS011;34799;51.440;-2.534;2023-10-19T11:26:21;17.52;;;1.90;;
48987;SDS011;34799;51.440;-2.534;2023-10-19T11:28:57;18.27;;;1.92;;
48987;SDS011;34799;51.440;-2.534;2023-10-19T11:31:28;21.27;;;2.05;;
48987;SDS011;34799;51.440;-2.534;2023-10-19T11:34:04;20.38;;;1.50;;
48987;SDS011;34799;51.440;-2.534;2023-10-19T11:36:31;16.98;;;2.33;;
48987;SDS011;34799;51.440;-2.534;2023-10-19T11:39:00;14.35;;;1.70;;
48987;SDS011;34799;51.440;-2.534;2023-10-19T11:41:28;13.57;;;1.50;;
48987;SDS011;34799;51.440;-2.534;2023-10-19T11:43:56;15.10;;;1.92;;
48987;SDS011;34799;51.440;-2.534;2023-10-19T11:46:23;18.35;;;2.05;;
48987;SDS011;34799;51.440;-2.534;2023-10-19T11:48:52;12.30;;;1.45;;
48987;SDS011;34799;51.440;-2.534;2023-10-19T11:51:19;16.08;;;2.17;;
48987;SDS011;34799;51.440;-2.534;2023-10-19T11:53:47;19.90;;;4.43;;
48987;SDS011;34799;51.440;-2.534;2023-10-19T11:56:15;20.83;;;2.05;;
48987;SDS011;34799;51.440;-2.534;2023-10-19T11:58:44;13.68;;;1.27;;
48987;SDS011;34799;51.440;-2.534;2023-10-19T12:01:13;16.85;;;2.53;;
48987;SDS011;34799;51.440;-2.534;2023-10-19T12:03:43;18.83;;;2.28;;
48987;SDS011;34799;51.440;-2.534;2023-10-19T12:06:12;15.95;;;3.42;;
48987;SDS011;34799;51.440;-2.534;2023-10-19T12:08:46;16.10;;;2.40;;
48987;SDS011;34799;51.440;-2.534;2023-10-19T12:11:13;10.63;;;1.27;;
48987;SDS011;34799;51.440;-2.534;2023-10-19T12:13:49;10.75;;;1.58;;
48987;SDS011;34799;51.440;-2.534;2023-10-19T12:16:17;10.15;;;1.83;;
48987;SDS011;34799;51.440;-2.534;2023-10-19T12:18:45;12.63;;;1.33;;
48987;SDS011;34799;51.440;-2.534;2023-10-19T12:21:15;12.57;;;1.42;;
48987;SDS011;34799;51.440;-2.534;2023-10-19T12:23:44;12.27;;;2.17;;
48987;SDS011;34799;51.440;-2.534;2023-10-19T12:26:18;13.30;;;1.63;;
48987;SDS011;34799;51.440;-2.534;2023-10-19T12:28:46;14.73;;;1.55;;
48987;SDS011;34799;51.440;-2.534;2023-10-19T12:31:15;12.13;;;1.73;;
48987;SDS011;34799;51.440;-2.534;2023-10-19T12:33:45;10.35;;;1.20;;
48987;SDS011;34799;51.440;-2.534;2023-10-19T12:36:12;9.95;;;1.15;;
48987;SDS011;34799;51.440;-2.534;2023-10-19T12:39:00;13.38;;;1.15;;
48987;SDS011;34799;51.440;-2.534;2023-10-19T12:41:28;13.80;;;1.45;;
48987;SDS011;34799;51.440;-2.534;2023-10-19T12:43:56;11.25;;;1.55;;
48987;SDS011;34799;51.440;-2.534;2023-10-19T12:46:24;12.27;;;1.50;;
48987;SDS011;34799;51.440;-2.534;2023-10-19T12:48:55;10.70;;;0.90;;
48987;SDS011;34799;51.440;-2.534;2023-10-19T12:51:22;13.35;;;1.23;;
48987;SDS011;34799;51.440;-2.534;2023-10-19T12:53:51;16.83;;;1.65;;
48987;SDS011;34799;51.440;-2.534;2023-10-19T12:56:22;10.57;;;1.08;;
48987;SDS011;34799;51.440;-2.534;2023-10-19T13:01:22;10.07;;;1.30;;
48987;SDS011;34799;51.440;-2.534;2023-10-19T13:03:50;13.65;;;1.48;;
48987;SDS011;34799;51.440;-2.534;2023-10-19T13:06:18;9.13;;;1.08;;
48987;SDS011;34799;51.440;-2.534;2023-10-19T13:08:46;11.48;;;1.33;;
48987;SDS011;34799;51.440;-2.534;2023-10-19T13:11:14;18.77;;;2.17;;
48987;SDS011;34799;51.440;-2.534;2023-10-19T13:13:43;15.32;;;1.77;;
48987;SDS011;34799;51.440;-2.534;2023-10-19T13:16:11;17.20;;;1.60;;
48987;SDS011;34799;51.440;-2.534;2023-10-19T13:18:39;18.88;;;1.60;;
48987;SDS011;34799;51.440;-2.534;2023-10-19T13:21:07;18.13;;;1.70;;
48987;SDS011;34799;51.440;-2.534;2023-10-19T13:26:11;13.63;;;2.13;;
48987;SDS011;34799;51.440;-2.534;2023-10-19T13:28:44;11.20;;;1.65;;
48987;SDS011;34799;51.440;-2.534;2023-10-19T13:31:12;19.17;;;2.03;;
48987;SDS011;34799;51.440;-2.534;2023-10-19T13:33:43;12.02;;;2.33;;
48987;SDS011;34799;51.440;-2.534;2023-10-19T13:36:12;11.75;;;1.33;;
48987;SDS011;34799;51.440;-2.534;2023-10-19T13:38:41;11.02;;;1.10;;
48987;SDS011;34799;51.440;-2.534;2023-10-19T13:41:10;15.90;;;1.40;;
48987;SDS011;34799;51.440;-2.534;2023-10-19T13:43:39;16.35;;;1.33;;
48987;SDS011;34799;51.440;-2.534;2023-10-19T13:46:07;12.27;;;1.30;;
48987;SDS011;34799;51.440;-2.534;2023-10-19T13:48:35;13.75;;;1.30;;
48987;SDS011;34799;51.440;-2.534;2023-10-19T13:51:04;12.88;;;1.25;;
48987;SDS011;34799;51.440;-2.534;2023-10-19T13:53:41;14.40;;;1.35;;
48987;SDS011;34799;51.440;-2.534;2023-10-19T13:56:11;12.90;;;1.33;;
48987;SDS011;34799;51.440;-2.534;2023-10-19T13:58:38;14.23;;;1.65;;
48987;SDS011;34799;51.440;-2.534;2023-10-19T14:01:06;12.90;;;1.60;;
48987;SDS011;34799;51.440;-2.534;2023-10-19T14:03:37;13.55;;;1.40;;
48987;SDS011;34799;51.440;-2.534;2023-10-19T14:06:05;12.43;;;1.60;;
48987;SDS011;34799;51.440;-2.534;2023-10-19T14:08:32;12.95;;;1.73;;
48987;SDS011;34799;51.440;-2.534;2023-10-19T14:11:02;13.85;;;1.25;;
48987;SDS011;34799;51.440;-2.534;2023-10-19T14:13:30;9.25;;;1.13;;
48987;SDS011;34799;51.440;-2.534;2023-10-19T14:15:58;13.70;;;1.25;;
48987;SDS011;34799;51.440;-2.534;2023-10-19T14:18:25;14.10;;;1.92;;
48987;SDS011;34799;51.440;-2.534;2023-10-19T14:20:54;11.73;;;1.20;;
48987;SDS011;34799;51.440;-2.534;2023-10-19T14:23:21;7.78;;;0.85;;
48987;SDS011;34799;51.440;-2.534;2023-10-19T14:25:51;12.52;;;1.08;;
48987;SDS011;34799;51.440;-2.534;2023-10-19T14:28:18;11.88;;;1.50;;
48987;SDS011;34799;51.440;-2.534;2023-10-19T14:30:45;14.48;;;1.92;;
48987;SDS011;34799;51.440;-2.534;2023-10-19T14:33:12;9.27;;;1.10;;
48987;SDS011;34799;51.440;-2.534;2023-10-19T14:35:39;12.35;;;1.67;;
48987;SDS011;34799;51.440;-2.534;2023-10-19T14:38:08;12.15;;;2.35;;
48987;SDS011;34799;51.440;-2.534;2023-10-19T14:40:37;10.05;;;1.25;;
48987;SDS011;34799;51.440;-2.534;2023-10-19T14:43:09;9.90;;;1.23;;
48987;SDS011;34799;51.440;-2.534;2023-10-19T14:45:39;14.98;;;2.15;;
48987;SDS011;34799;51.440;-2.534;2023-10-19T14:48:08;12.07;;;1.38;;
48987;SDS011;34799;51.440;-2.534;2023-10-19T14:50:37;10.05;;;1.20;;
48987;SDS011;34799;51.440;-2.534;2023-10-19T14:53:05;11.82;;;2.20;;
48987;SDS011;34799;51.440;-2.534;2023-10-19T14:55:32;11.98;;;1.10;;
48987;SDS011;34799;51.440;-2.534;2023-10-19T14:58:00;13.98;;;1.23;;
48987;SDS011;34799;51.440;-2.534;2023-10-19T15:00:28;13.52;;;2.03;;
48987;SDS011;34799;51.440;-2.534;2023-10-19T15:03:04;11.70;;;0.80;;
48987;SDS011;34799;51.440;-2.534;2023-10-19T15:05:36;11.23;;;0.98;;
48987;SDS011;34799;51.440;-2.534;2023-10-19T15:08:04;11.07;;;1.65;;
48987;SDS011;34799;51.440;-2.534;2023-10-19T15:10:33;10.50;;;0.93;;
48987;SDS011;34799;51.440;-2.534;2023-10-19T15:13:03;10.63;;;1.10;;
48987;SDS011;34799;51.440;-2.534;2023-10-19T15:15:32;6.85;;;0.60;;
48987;SDS011;34799;51.440;-2.534;2023-10-19T15:17:59;11.82;;;0.93;;
48987;SDS011;34799;51.440;-2.534;2023-10-19T15:20:26;8.35;;;0.80;;
48987;SDS011;34799;51.440;-2.534;2023-10-19T15:22:54;8.68;;;1.02;;